createdAt,value
2022-12-12T00:02:00.715Z,20.47
2022-12-12T00:07:02.370Z,18.90
2022-12-12T00:12:05.337Z,19.00
2022-12-12T00:17:07.006Z,19.30
2022-12-12T00:22:09.175Z,21.27
2022-12-12T00:27:10.923Z,19.47
2022-12-12T00:32:12.592Z,20.27
2022-12-12T00:37:14.271Z,17.60
2022-12-12T00:42:16.784Z,20.57
2022-12-12T00:47:18.470Z,19.63
2022-12-12T00:52:20.261Z,17.73
2022-12-12T00:57:21.931Z,19.63
2022-12-12T01:02:28.073Z,19.03
2022-12-12T01:07:30.238Z,18.77
2022-12-12T01:12:32.095Z,19.57
2022-12-12T01:17:37.839Z,18.70
2022-12-12T01:22:39.526Z,20.07
2022-12-12T01:27:42.046Z,20.60
2022-12-12T01:32:43.695Z,18.50
2022-12-12T01:37:45.551Z,19.23
2022-12-12T01:42:48.050Z,19.07
2022-12-12T01:47:49.700Z,18.40
2022-12-12T01:52:51.390Z,20.23
2022-12-12T01:57:54.917Z,17.73
2022-12-12T02:02:57.084Z,20.27
2022-12-12T02:08:01.440Z,20.23
2022-12-12T02:13:08.095Z,22.27
2022-12-12T02:18:18.466Z,20.53
2022-12-12T02:24:05.496Z,20.83
2022-12-12T02:29:31.647Z,19.43
2022-12-12T02:35:00.686Z,18.93
2022-12-12T02:40:24.086Z,19.03
2022-12-12T02:45:31.666Z,20.93
2022-12-12T02:50:35.307Z,20.63
2022-12-12T02:55:37.137Z,19.67
2022-12-12T03:00:54.408Z,20.47
2022-12-12T03:06:23.797Z,22.10
2022-12-12T03:11:56.364Z,23.50
2022-12-12T03:16:57.981Z,21.20
2022-12-12T03:22:24.014Z,20.53
2022-12-12T03:28:05.256Z,20.90
2022-12-12T03:33:13.918Z,23.33
2022-12-12T03:38:26.758Z,22.30
2022-12-12T03:43:33.903Z,23.63
2022-12-12T03:48:45.815Z,22.33
2022-12-12T03:53:53.669Z,20.87
2022-12-12T03:59:15.022Z,21.60
2022-12-12T04:04:32.782Z,20.97
2022-12-12T04:09:53.333Z,19.73
2022-12-12T04:15:00.868Z,18.70
2022-12-12T04:20:35.499Z,19.33
2022-12-12T04:26:20.136Z,18.57
2022-12-12T04:31:27.117Z,19.63
2022-12-12T04:36:31.545Z,18.40
2022-12-12T04:41:37.252Z,18.90
2022-12-12T04:46:41.382Z,18.00
2022-12-12T04:51:47.349Z,19.83
2022-12-12T04:56:55.111Z,15.57
2022-12-12T05:02:18.046Z,18.07
2022-12-12T05:08:15.177Z,17.17
2022-12-12T05:13:19.306Z,17.93
2022-12-12T05:18:21.852Z,17.10
2022-12-12T05:23:23.525Z,16.73
2022-12-12T05:28:25.179Z,17.60
2022-12-12T05:33:26.835Z,18.20
2022-12-12T05:38:28.489Z,17.97
2022-12-12T05:43:30.467Z,16.40
2022-12-12T05:48:32.620Z,17.73
2022-12-12T05:53:42.012Z,19.03
2022-12-12T05:58:44.359Z,18.30
2022-12-12T06:03:46.141Z,12.30
2022-12-12T06:08:47.886Z,19.17
2022-12-12T06:13:49.556Z,19.13
2022-12-12T06:18:52.814Z,18.67
2022-12-12T06:23:54.684Z,19.50
2022-12-12T06:28:56.348Z,18.17
2022-12-12T06:33:58.021Z,19.27
2022-12-12T06:39:01.602Z,18.97
2022-12-12T06:44:03.336Z,20.33
2022-12-12T06:49:09.713Z,20.17
2022-12-12T06:54:16.186Z,20.93
2022-12-12T06:59:17.915Z,18.80
2022-12-12T07:04:20.470Z,19.97
2022-12-12T07:09:22.200Z,22.20
2022-12-12T07:14:23.872Z,18.87
2022-12-12T07:19:26.435Z,17.57
2022-12-12T07:24:28.102Z,19.90
2022-12-12T07:29:29.820Z,17.57
2022-12-12T07:34:32.597Z,21.07
2022-12-12T07:39:34.692Z,16.90
2022-12-12T07:44:36.400Z,17.73
2022-12-12T07:49:38.100Z,16.70
2022-12-12T07:54:39.811Z,14.87
2022-12-12T07:59:41.541Z,12.57
2022-12-12T08:04:43.238Z,15.60
2022-12-12T08:09:44.932Z,13.83
2022-12-12T08:14:46.760Z,14.33
2022-12-12T08:19:48.484Z,14.60
2022-12-12T08:24:50.386Z,14.13
2022-12-12T08:29:53.163Z,13.43
2022-12-12T08:34:58.573Z,15.03
2022-12-12T08:40:00.325Z,14.20
2022-12-12T08:45:02.077Z,20.70
2022-12-12T08:50:05.039Z,14.97
2022-12-12T08:55:06.968Z,14.20
2022-12-12T09:00:09.426Z,16.47
2022-12-12T09:05:11.490Z,13.52
2022-12-12T09:10:13.299Z,13.53
2022-12-12T09:15:15.421Z,16.57
2022-12-12T09:20:17.491Z,15.07
2022-12-12T09:25:19.479Z,14.43
2022-12-12T09:30:22.046Z,15.77
2022-12-12T09:35:23.712Z,15.43
2022-12-12T09:40:53.345Z,15.57
2022-12-12T09:45:55.847Z,13.90
2022-12-12T09:50:57.559Z,14.70
2022-12-12T09:56:02.089Z,13.40
2022-12-12T10:01:07.609Z,15.47
2022-12-12T10:06:36.369Z,14.23
2022-12-12T10:11:52.071Z,13.30
2022-12-12T10:16:58.287Z,13.30
2022-12-12T10:22:24.131Z,15.40
2022-12-12T10:27:26.152Z,15.23
2022-12-12T10:32:51.993Z,14.97
2022-12-12T10:38:29.652Z,14.87
2022-12-12T10:43:51.489Z,14.00
2022-12-12T10:48:54.260Z,13.30
2022-12-12T10:53:56.051Z,14.90
2022-12-12T10:59:01.955Z,14.10
2022-12-12T11:04:04.701Z,13.50
2022-12-12T11:09:17.670Z,14.43
2022-12-12T11:14:31.197Z,14.27
2022-12-12T11:19:38.369Z,14.27
2022-12-12T11:24:45.364Z,14.43
2022-12-12T11:29:51.553Z,15.60
2022-12-12T11:35:00.307Z,15.47
2022-12-12T11:40:02.419Z,15.00
2022-12-12T11:45:10.545Z,14.20
2022-12-12T11:50:22.901Z,14.57
2022-12-12T11:55:46.521Z,14.30
2022-12-12T12:00:58.348Z,15.95
2022-12-12T12:06:15.166Z,14.53
2022-12-12T12:11:25.104Z,15.63
2022-12-12T12:16:32.533Z,14.88
2022-12-12T12:21:56.182Z,15.27
2022-12-12T12:27:02.503Z,16.43
2022-12-12T12:32:18.731Z,14.73
2022-12-12T12:37:58.063Z,16.70
2022-12-12T12:43:17.667Z,14.37
2022-12-12T12:48:30.478Z,14.13
2022-12-12T12:53:35.764Z,14.80
2022-12-12T12:58:45.580Z,16.37
2022-12-12T13:03:58.758Z,13.98
2022-12-12T13:09:13.606Z,14.63
2022-12-12T13:14:45.802Z,14.67
2022-12-12T13:19:53.504Z,15.13
2022-12-12T13:25:22.949Z,15.07
2022-12-12T13:30:36.888Z,15.33
2022-12-12T13:35:51.128Z,15.93
2022-12-12T13:41:06.383Z,15.17
2022-12-12T13:46:27.330Z,14.33
2022-12-12T13:51:31.040Z,13.73
2022-12-12T13:56:57.609Z,15.30
2022-12-12T14:02:19.156Z,14.10
2022-12-12T14:07:25.678Z,12.50
2022-12-12T14:12:32.031Z,14.03
2022-12-12T14:17:42.867Z,12.53
2022-12-12T14:22:44.878Z,11.50
2022-12-12T14:27:49.335Z,11.97
2022-12-12T14:33:18.131Z,12.03
2022-12-12T14:38:41.455Z,12.10
2022-12-12T14:44:37.260Z,12.37
2022-12-12T14:49:17.407Z,12.30
2022-12-12T14:54:22.306Z,10.73
2022-12-12T14:59:29.591Z,11.40
2022-12-12T15:04:34.871Z,10.70
2022-12-12T15:09:39.868Z,13.20
2022-12-12T15:15:02.044Z,14.80
2022-12-12T15:20:17.459Z,13.27
2022-12-12T15:25:25.308Z,14.80
2022-12-12T15:30:45.593Z,14.40
2022-12-12T15:36:01.501Z,14.70
2022-12-12T15:41:11.183Z,14.53
2022-12-12T15:46:15.682Z,17.33
2022-12-12T15:51:24.593Z,15.37
2022-12-12T15:56:31.608Z,15.43
2022-12-12T16:01:33.415Z,17.27
2022-12-12T16:06:44.475Z,17.17
2022-12-12T16:11:50.305Z,16.10
2022-12-12T16:17:04.266Z,17.10
2022-12-12T16:22:31.436Z,18.17
2022-12-12T16:27:33.893Z,20.07
2022-12-12T16:32:36.049Z,18.40
2022-12-12T16:37:37.711Z,17.70
2022-12-12T16:42:39.462Z,18.90
2022-12-12T16:47:41.143Z,17.97
2022-12-12T16:52:42.892Z,17.13
2022-12-12T16:57:44.546Z,18.70
2022-12-12T17:02:46.408Z,17.10
2022-12-12T17:07:48.130Z,15.83
2022-12-12T17:12:51.175Z,17.33
2022-12-12T17:17:53.908Z,17.10
2022-12-12T17:22:56.130Z,18.20
2022-12-12T17:27:58.245Z,17.47
2022-12-12T17:33:18.215Z,16.47
2022-12-12T17:38:19.915Z,18.77
2022-12-12T17:43:22.175Z,19.30
2022-12-12T17:48:23.934Z,20.80
2022-12-12T17:53:25.989Z,19.63
2022-12-12T17:58:32.126Z,19.67
2022-12-12T18:03:33.830Z,18.27
2022-12-12T18:08:36.736Z,18.33
2022-12-12T18:13:39.503Z,19.23
2022-12-12T18:18:41.628Z,18.85
2022-12-12T18:23:43.695Z,18.07
2022-12-12T18:28:45.365Z,21.70
2022-12-12T18:33:47.345Z,19.20
2022-12-12T18:38:49.485Z,20.13
2022-12-12T18:43:51.168Z,19.67
2022-12-12T18:48:52.964Z,23.47
2022-12-12T18:53:59.832Z,24.00
2022-12-12T18:59:02.369Z,23.70
2022-12-12T19:04:11.702Z,22.83
2022-12-12T19:09:17.462Z,23.73
2022-12-12T19:14:19.227Z,22.80
2022-12-12T19:19:21.170Z,23.87
2022-12-12T19:24:22.845Z,20.67
2022-12-12T19:29:24.548Z,21.07
2022-12-12T19:34:26.299Z,23.50
2022-12-12T19:39:28.212Z,23.00
2022-12-12T19:44:29.951Z,22.23
2022-12-12T19:49:31.707Z,23.60
2022-12-12T19:54:33.364Z,20.80
2022-12-12T19:59:35.294Z,20.73
2022-12-12T20:04:39.370Z,17.27
2022-12-12T20:09:41.034Z,19.67
2022-12-12T20:14:42.717Z,17.27
2022-12-12T20:19:47.292Z,19.70
2022-12-12T20:24:49.045Z,18.57
2022-12-12T20:29:50.718Z,17.93
2022-12-12T20:34:53.057Z,18.23
2022-12-12T20:39:54.752Z,16.60
2022-12-12T20:44:56.399Z,15.43
2022-12-12T20:49:58.085Z,14.47
2022-12-12T20:54:59.791Z,15.47
2022-12-12T21:00:01.438Z,16.90
2022-12-12T21:05:05.619Z,16.67
2022-12-12T21:10:07.588Z,17.20
2022-12-12T21:15:09.627Z,16.93
2022-12-12T21:20:11.593Z,17.43
2022-12-12T21:25:13.566Z,16.67
2022-12-12T21:30:15.415Z,15.87
2022-12-12T21:35:17.254Z,21.83
2022-12-12T21:40:19.244Z,18.83
2022-12-12T21:45:20.926Z,17.77
2022-12-12T21:50:27.484Z,15.90
2022-12-12T21:55:32.157Z,19.13
2022-12-12T22:00:39.861Z,18.10
2022-12-12T22:05:41.544Z,16.13
2022-12-12T22:10:44.126Z,16.00
2022-12-12T22:15:56.499Z,15.87
2022-12-12T22:21:05.736Z,15.43
2022-12-12T22:26:23.709Z,14.80
2022-12-12T22:31:28.389Z,16.60
2022-12-12T22:36:40.137Z,17.00
2022-12-12T22:41:41.854Z,15.53
2022-12-12T22:46:45.402Z,16.33
2022-12-12T22:51:48.747Z,15.83
2022-12-12T22:56:50.824Z,18.30
2022-12-12T23:01:52.609Z,17.48
2022-12-12T23:06:54.313Z,17.43
2022-12-12T23:11:56.126Z,15.97
2022-12-12T23:16:57.824Z,15.10
2022-12-12T23:22:00.000Z,15.40
2022-12-12T23:27:02.071Z,15.82
2022-12-12T23:32:04.013Z,14.83
2022-12-12T23:37:05.743Z,15.53
2022-12-12T23:42:07.616Z,15.07
2022-12-12T23:47:09.295Z,14.13
2022-12-12T23:52:11.037Z,14.90
2022-12-12T23:57:12.730Z,14.13
